Time;durP1;ratioP1;P1;durP2;ratioP2;P2;SDS_P1;SDS_P2;PMS_P1;PMS_P2;Temp;Humidity;BMP_temperature;BMP_pressure;BME280_temperature;BME280_humidity;BME280_pressure;Samples;Min_cycle;Max_cycle;Signal;HPM_P1;HPM_P2
2021/07/05 00:00:23;;;;;;;15.02;12.73;;;17.00;99.90;;;;;;3597266;39;20036;-78
2021/07/05 00:02:49;;;;;;;19.02;13.13;;;17.00;99.90;;;;;;3596228;40;20334;-78
2021/07/05 00:05:16;;;;;;;14.23;11.98;;;17.00;99.90;;;;;;3596681;39;20070;-78
2021/07/05 00:07:48;;;;;;;17.15;12.35;;;17.00;99.90;;;;;;3597227;40;20043;-77
2021/07/05 00:10:16;;;;;;;13.65;10.57;;;17.00;99.90;;;;;;3596824;39;20169;-77
2021/07/05 00:12:45;;;;;;;16.00;11.80;;;17.00;99.90;;;;;;3596161;40;20036;-78
2021/07/05 00:15:13;;;;;;;20.02;12.82;;;17.00;99.90;;;;;;3592463;39;20044;-77
2021/07/05 00:17:40;;;;;;;14.40;12.15;;;17.00;99.90;;;;;;3597280;39;20420;-78
2021/07/05 00:20:07;;;;;;;14.52;11.60;;;17.00;99.90;;;;;;3596277;39;20040;-77
2021/07/05 00:22:33;;;;;;;13.18;11.02;;;17.00;99.90;;;;;;3578961;40;20110;-78
2021/07/05 00:24:59;;;;;;;15.35;12.43;;;17.00;99.90;;;;;;3586000;40;20712;-80
2021/07/05 00:27:24;;;;;;;18.48;13.32;;;17.00;99.90;;;;;;3586709;40;20059;-79
2021/07/05 00:29:51;;;;;;;15.38;12.85;;;17.00;99.90;;;;;;3580978;40;20059;-79
2021/07/05 00:32:17;;;;;;;14.32;11.63;;;17.00;99.90;;;;;;3586300;40;20235;-77
2021/07/05 00:34:42;;;;;;;14.57;12.25;;;17.00;99.90;;;;;;3586128;40;20069;-77
2021/07/05 00:37:08;;;;;;;19.13;12.27;;;17.00;99.90;;;;;;3585619;40;20060;-77
2021/07/05 00:39:35;;;;;;;20.83;12.32;;;17.00;99.90;;;;;;3586506;40;20185;-78
2021/07/05 00:42:01;;;;;;;18.05;14.00;;;17.00;99.90;;;;;;3586631;40;20122;-77
2021/07/05 00:44:27;;;;;;;16.25;12.48;;;17.10;99.90;;;;;;3586550;40;20040;-76
2021/07/05 00:46:52;;;;;;;13.43;11.27;;;17.00;99.90;;;;;;3577485;40;20044;-77
2021/07/05 00:49:18;;;;;;;16.98;13.50;;;17.00;99.90;;;;;;3586396;40;20041;-78
2021/07/05 00:51:44;;;;;;;17.77;12.88;;;17.10;99.90;;;;;;3586735;40;20040;-77
2021/07/05 00:54:10;;;;;;;14.88;11.93;;;17.10;99.90;;;;;;3586140;40;20328;-77
2021/07/05 00:56:36;;;;;;;16.02;12.75;;;17.10;99.90;;;;;;3587013;40;20046;-75
2021/07/05 00:59:03;;;;;;;17.23;13.27;;;17.10;99.90;;;;;;3583116;40;20373;-77
2021/07/05 01:01:29;;;;;;;18.40;13.30;;;17.10;99.90;;;;;;3585678;40;20072;-77
2021/07/05 01:03:55;;;;;;;26.30;13.73;;;17.10;99.90;;;;;;3586206;40;20129;-77
2021/07/05 01:06:21;;;;;;;16.98;12.77;;;17.10;99.90;;;;;;3586424;40;20036;-76
2021/07/05 01:08:47;;;;;;;17.60;14.43;;;17.10;99.90;;;;;;3585842;40;20045;-77
2021/07/05 01:11:13;;;;;;;18.85;13.85;;;17.10;99.90;;;;;;3586149;40;20040;-77
2021/07/05 01:13:39;;;;;;;18.48;14.30;;;17.10;99.90;;;;;;3586218;40;20364;-76
2021/07/05 01:16:05;;;;;;;19.33;14.25;;;17.00;99.90;;;;;;3586423;40;20045;-76
2021/07/05 01:18:31;;;;;;;21.02;15.75;;;17.00;99.90;;;;;;3586372;40;20040;-76
2021/07/05 01:21:01;;;;;;;17.02;14.38;;;17.00;99.90;;;;;;3586287;40;20054;-77
2021/07/05 01:23:28;;;;;;;22.20;16.30;;;17.00;99.90;;;;;;3586187;40;20036;-76
2021/07/05 01:25:54;;;;;;;20.77;16.20;;;17.10;99.90;;;;;;3586930;40;20345;-77
2021/07/05 01:28:20;;;;;;;24.65;16.80;;;17.10;99.90;;;;;;3586108;40;20068;-78
2021/07/05 01:30:51;;;;;;;25.02;16.55;;;17.10;99.90;;;;;;3588083;40;20044;-77
2021/07/05 01:33:18;;;;;;;21.35;16.90;;;17.10;99.90;;;;;;3584799;40;20037;-76
2021/07/05 01:35:45;;;;;;;24.40;15.98;;;17.10;99.90;;;;;;3585864;40;20040;-76
2021/07/05 01:38:20;;;;;;;21.48;17.35;;;17.10;99.90;;;;;;3586300;40;20097;-76
2021/07/05 01:41:00;;;;;;;20.80;16.58;;;17.10;99.90;;;;;;3586260;40;20052;-77
2021/07/05 01:43:28;;;;;;;23.27;17.02;;;17.10;99.90;;;;;;3586199;40;20122;-77
2021/07/05 01:45:54;;;;;;;19.95;14.52;;;17.10;99.90;;;;;;3585240;40;20040;-76
2021/07/05 01:48:21;;;;;;;22.67;16.85;;;17.10;99.90;;;;;;3585382;40;20109;-77
2021/07/05 01:50:48;;;;;;;21.25;16.13;;;17.10;99.90;;;;;;3586048;40;20044;-76
2021/07/05 01:53:14;;;;;;;21.58;16.77;;;17.10;99.90;;;;;;3586334;40;20137;-76
2021/07/05 01:55:40;;;;;;;24.23;18.52;;;17.10;99.90;;;;;;3586050;40;20130;-76
2021/07/05 01:58:08;;;;;;;21.65;16.17;;;17.10;99.90;;;;;;3586741;40;20117;-76
2021/07/05 02:00:35;;;;;;;21.67;16.13;;;17.10;99.90;;;;;;3585497;40;20420;-76
2021/07/05 02:03:02;;;;;;;22.67;17.92;;;17.10;99.90;;;;;;3585825;40;20053;-75
2021/07/05 02:05:28;;;;;;;22.88;16.27;;;17.10;99.90;;;;;;3586187;40;20040;-76
2021/07/05 02:07:55;;;;;;;26.05;18.35;;;17.10;99.90;;;;;;3586367;40;20088;-76
2021/07/05 02:10:27;;;;;;;20.33;16.45;;;17.10;99.90;;;;;;3585783;40;20358;-76
2021/07/05 02:12:56;;;;;;;22.83;17.47;;;17.10;99.90;;;;;;3586230;40;20076;-77
2021/07/05 02:15:22;;;;;;;19.73;16.48;;;17.10;99.90;;;;;;3586078;40;20072;-76
2021/07/05 02:17:48;;;;;;;21.85;16.55;;;17.20;99.90;;;;;;3585968;40;20041;-76
2021/07/05 02:20:20;;;;;;;19.67;15.77;;;17.20;99.90;;;;;;3586006;40;20414;-76
2021/07/05 02:22:49;;;;;;;21.48;15.95;;;17.10;99.90;;;;;;3585537;40;20032;-76
2021/07/05 02:25:15;;;;;;;22.90;17.67;;;17.10;99.90;;;;;;3576899;40;20032;-76
2021/07/05 02:27:42;;;;;;;18.88;15.68;;;17.20;99.90;;;;;;3585859;40;20132;-76
2021/07/05 02:30:17;;;;;;;25.90;15.95;;;17.10;99.90;;;;;;3588477;40;20319;-76
2021/07/05 02:32:46;;;;;;;21.88;15.73;;;17.20;99.90;;;;;;3585938;40;20055;-76
2021/07/05 02:35:14;;;;;;;25.90;18.17;;;17.20;99.90;;;;;;3585663;40;20044;-76
2021/07/05 02:37:42;;;;;;;26.85;17.33;;;17.20;99.90;;;;;;3584752;40;20236;-76
2021/07/05 02:40:11;;;;;;;19.92;15.23;;;17.20;99.90;;;;;;3568104;40;20347;-76
2021/07/05 02:42:38;;;;;;;18.75;14.35;;;17.10;99.90;;;;;;3580847;40;20036;-83
2021/07/05 02:45:11;;;;;;;15.60;13.48;;;17.20;99.90;;;;;;3581975;40;20072;-77
2021/07/05 02:47:37;;;;;;;16.60;13.80;;;17.10;99.90;;;;;;3577583;40;20044;-78
2021/07/05 02:50:06;;;;;;;14.93;13.35;;;17.10;99.90;;;;;;3579366;40;20048;-78
2021/07/05 02:52:32;;;;;;;14.10;11.93;;;17.10;99.90;;;;;;3579990;40;20041;-77
2021/07/05 02:54:58;;;;;;;18.45;15.07;;;17.10;99.90;;;;;;3576075;40;20049;-76
2021/07/05 02:57:29;;;;;;;16.70;13.88;;;17.10;99.90;;;;;;3577063;40;20040;-77
2021/07/05 03:00:08;;;;;;;17.80;14.02;;;17.10;99.90;;;;;;3579811;40;20051;-77
2021/07/05 03:02:34;;;;;;;17.35;13.70;;;17.10;99.90;;;;;;3582057;40;20244;-77
2021/07/05 03:05:00;;;;;;;22.80;15.52;;;17.10;99.90;;;;;;3588816;39;20316;-77
2021/07/05 03:07:27;;;;;;;20.67;14.15;;;17.10;99.90;;;;;;3577630;40;20049;-76
2021/07/05 03:09:53;;;;;;;14.32;12.57;;;17.00;99.90;;;;;;3577804;40;20073;-76
2021/07/05 03:12:20;;;;;;;14.25;12.75;;;17.00;99.90;;;;;;3577502;40;20043;-77
2021/07/05 03:14:46;;;;;;;14.88;12.38;;;17.00;99.90;;;;;;3579083;40;20040;-77
2021/07/05 03:17:13;;;;;;;14.48;11.20;;;17.00;99.90;;;;;;3579548;40;20125;-76
2021/07/05 03:19:39;;;;;;;17.63;12.55;;;17.00;99.90;;;;;;3581152;40;20629;-77
2021/07/05 03:22:05;;;;;;;17.83;11.95;;;17.00;99.90;;;;;;3581490;40;20133;-77
2021/07/05 03:24:31;;;;;;;15.48;11.50;;;17.00;99.90;;;;;;3574641;40;20051;-77
2021/07/05 03:26:57;;;;;;;14.82;12.60;;;17.00;99.90;;;;;;3573891;40;20049;-76
2021/07/05 03:29:23;;;;;;;12.75;11.43;;;17.00;99.90;;;;;;3574832;40;20048;-78
2021/07/05 03:31:49;;;;;;;17.13;11.93;;;17.00;99.90;;;;;;3586072;39;20040;-77
2021/07/05 03:34:16;;;;;;;15.30;11.75;;;17.00;99.90;;;;;;3584975;40;20047;-76
2021/07/05 03:36:42;;;;;;;16.20;12.77;;;17.00;99.90;;;;;;3585516;40;20047;-77
2021/07/05 03:39:08;;;;;;;16.65;11.27;;;17.00;99.90;;;;;;3585466;40;20044;-77
2021/07/05 03:41:34;;;;;;;14.05;12.50;;;17.00;99.90;;;;;;3585252;40;20182;-77
2021/07/05 03:43:59;;;;;;;16.75;13.23;;;17.00;99.90;;;;;;3585266;40;20048;-77
2021/07/05 03:46:25;;;;;;;13.15;11.75;;;17.00;99.90;;;;;;3584355;40;20051;-77
2021/07/05 03:48:51;;;;;;;16.70;13.38;;;17.00;99.90;;;;;;3585452;40;20355;-77
2021/07/05 03:51:17;;;;;;;15.15;11.65;;;17.00;99.90;;;;;;3584299;40;20041;-78
2021/07/05 03:53:43;;;;;;;19.92;14.02;;;17.00;99.90;;;;;;3585689;40;20529;-77
2021/07/05 03:56:09;;;;;;;18.33;12.68;;;17.00;99.90;;;;;;3576275;40;20044;-76
2021/07/05 03:58:35;;;;;;;19.48;13.65;;;17.00;99.90;;;;;;3575692;40;20033;-77
2021/07/05 04:01:01;;;;;;;18.02;12.35;;;17.00;99.90;;;;;;3585314;40;20047;-78
2021/07/05 04:03:28;;;;;;;17.60;13.43;;;17.00;99.90;;;;;;3584993;40;20056;-78
2021/07/05 04:05:55;;;;;;;16.60;13.52;;;17.00;99.90;;;;;;3584504;40;20308;-78
2021/07/05 04:08:22;;;;;;;18.35;13.02;;;17.00;99.90;;;;;;3584308;40;20045;-79
2021/07/05 04:10:48;;;;;;;16.88;11.95;;;16.90;99.90;;;;;;3584139;40;20043;-77
2021/07/05 04:13:15;;;;;;;15.93;12.57;;;17.00;99.90;;;;;;3586549;40;20151;-77
2021/07/05 04:15:40;;;;;;;14.30;11.43;;;16.90;99.90;;;;;;3586749;40;20128;-76
2021/07/05 04:18:07;;;;;;;17.17;12.65;;;16.90;99.90;;;;;;3585694;40;20348;-76
2021/07/05 04:20:33;;;;;;;14.43;11.98;;;16.80;99.90;;;;;;3586827;40;20048;-77
2021/07/05 04:22:59;;;;;;;15.48;11.90;;;16.80;99.90;;;;;;3584134;40;20099;-77
2021/07/05 04:25:25;;;;;;;15.50;11.55;;;16.80;99.90;;;;;;3586850;40;20044;-77
2021/07/05 04:27:53;;;;;;;18.92;13.77;;;16.80;99.90;;;;;;3585792;40;20137;-77
2021/07/05 04:30:19;;;;;;;14.52;11.45;;;16.80;99.90;;;;;;3588059;40;20150;-77
2021/07/05 04:32:46;;;;;;;18.13;12.63;;;16.80;99.90;;;;;;3593847;39;20121;-76
2021/07/05 04:35:16;;;;;;;15.75;12.82;;;16.80;99.90;;;;;;3585434;40;20048;-78
2021/07/05 04:37:44;;;;;;;23.88;13.95;;;16.80;99.90;;;;;;3585807;40;20067;-77
2021/07/05 04:40:13;;;;;;;18.38;13.80;;;16.80;99.90;;;;;;3586460;40;20036;-77
2021/07/05 04:42:40;;;;;;;22.50;14.43;;;16.80;99.90;;;;;;3586623;40;20354;-82
2021/07/05 04:45:07;;;;;;;19.63;15.27;;;16.80;99.90;;;;;;3585529;40;20036;-77
2021/07/05 04:47:33;;;;;;;19.60;15.35;;;16.80;99.90;;;;;;3585141;40;20117;-78
2021/07/05 04:49:59;;;;;;;19.83;14.30;;;16.90;99.90;;;;;;3577117;40;20644;-77
2021/07/05 04:52:25;;;;;;;24.48;18.10;;;16.90;99.90;;;;;;3586583;40;20032;-76
2021/07/05 04:54:51;;;;;;;29.10;19.60;;;16.90;99.90;;;;;;3584435;40;20087;-78
2021/07/05 04:57:16;;;;;;;23.23;18.23;;;16.80;99.90;;;;;;3584986;40;20056;-77
2021/07/05 04:59:43;;;;;;;24.30;17.45;;;16.80;99.90;;;;;;3586429;40;20044;-79
2021/07/05 05:02:09;;;;;;;25.30;19.63;;;16.80;99.90;;;;;;3583380;40;20040;-78
2021/07/05 05:04:34;;;;;;;25.50;19.02;;;16.80;99.90;;;;;;3586451;40;20117;-80
2021/07/05 05:07:01;;;;;;;29.42;21.60;;;16.80;99.90;;;;;;3586342;40;20280;-77
2021/07/05 05:09:26;;;;;;;25.98;18.42;;;16.80;99.90;;;;;;3584936;40;20040;-77
2021/07/05 05:11:52;;;;;;;25.83;19.27;;;16.80;99.90;;;;;;3586645;40;20077;-78
2021/07/05 05:14:19;;;;;;;27.63;20.65;;;16.80;99.90;;;;;;3585871;40;20350;-78
2021/07/05 05:16:47;;;;;;;28.90;21.30;;;16.80;99.90;;;;;;3586428;40;20255;-77
2021/07/05 05:19:12;;;;;;;28.38;20.27;;;16.80;99.90;;;;;;3586139;40;20434;-78
2021/07/05 05:21:38;;;;;;;27.88;22.45;;;16.90;99.90;;;;;;3586117;40;20052;-79
2021/07/05 05:24:04;;;;;;;28.95;22.23;;;17.00;99.90;;;;;;3585029;40;20072;-77
2021/07/05 05:26:30;;;;;;;32.90;22.42;;;17.10;99.90;;;;;;3586283;40;20049;-80
2021/07/05 05:28:57;;;;;;;32.05;22.33;;;17.20;99.90;;;;;;3586130;40;20033;-81
2021/07/05 05:31:23;;;;;;;30.02;22.58;;;17.20;99.90;;;;;;3586562;40;20045;-79
2021/07/05 05:33:49;;;;;;;32.75;25.35;;;17.20;99.90;;;;;;3576703;40;20033;-81
2021/07/05 05:36:16;;;;;;;30.15;23.98;;;17.10;99.90;;;;;;3586145;40;20071;-79
2021/07/05 05:38:47;;;;;;;31.58;24.27;;;17.10;99.90;;;;;;3586175;40;20428;-80
2021/07/05 05:41:14;;;;;;;29.77;23.75;;;17.10;99.90;;;;;;3582929;40;20040;-81
2021/07/05 05:43:40;;;;;;;32.92;25.98;;;17.10;99.90;;;;;;3595469;39;20103;-78
2021/07/05 05:46:07;;;;;;;33.83;25.98;;;17.00;99.90;;;;;;3583791;40;20040;-79
2021/07/05 05:48:33;;;;;;;33.08;24.88;;;17.00;99.90;;;;;;3585250;40;20052;-80
2021/07/05 05:50:59;;;;;;;32.88;25.65;;;17.00;99.90;;;;;;3586003;40;20044;-79
2021/07/05 05:53:25;;;;;;;36.15;27.15;;;17.10;99.90;;;;;;3585914;40;20045;-79
2021/07/05 05:55:51;;;;;;;31.27;25.33;;;17.10;99.90;;;;;;3585287;40;20055;-80
2021/07/05 05:58:17;;;;;;;34.13;26.98;;;17.20;99.90;;;;;;3598915;39;20040;-84
2021/07/05 06:00:43;;;;;;;32.90;25.80;;;17.30;99.90;;;;;;3575154;40;20048;-80
2021/07/05 06:03:10;;;;;;;31.27;25.58;;;17.50;99.90;;;;;;3585244;40;20037;-81
2021/07/05 06:05:36;;;;;;;29.75;24.77;;;17.60;99.90;;;;;;3585884;40;20049;-82
2021/07/05 06:08:02;;;;;;;32.28;26.15;;;17.70;99.90;;;;;;3585853;40;20283;-80
2021/07/05 06:10:28;;;;;;;31.77;26.42;;;17.80;99.90;;;;;;3585966;40;20505;-81
2021/07/05 06:12:56;;;;;;;33.00;27.80;;;17.90;99.90;;;;;;3585248;40;20043;-80
2021/07/05 06:15:23;;;;;;;31.75;26.73;;;17.90;99.90;;;;;;3585880;40;20056;-82
2021/07/05 06:17:49;;;;;;;32.28;25.73;;;18.10;99.90;;;;;;3600346;39;20052;-80
2021/07/05 06:20:16;;;;;;;30.70;24.33;;;18.20;99.90;;;;;;3585941;40;20070;-81
2021/07/05 06:22:46;;;;;;;28.90;23.13;;;18.30;99.90;;;;;;3575589;40;20044;-80
2021/07/05 06:25:13;;;;;;;33.97;24.25;;;18.20;99.90;;;;;;3575439;40;20036;-83
2021/07/05 06:27:40;;;;;;;27.05;22.60;;;18.20;99.90;;;;;;3584915;40;20585;-83
2021/07/05 06:30:06;;;;;;;28.17;23.70;;;18.10;99.90;;;;;;3599309;39;20041;-81
2021/07/05 06:32:32;;;;;;;34.40;22.42;;;18.10;99.90;;;;;;3584675;40;20324;-80
2021/07/05 06:34:58;;;;;;;25.17;21.50;;;18.10;99.90;;;;;;3585050;40;20052;-84
2021/07/05 06:37:25;;;;;;;25.58;21.17;;;18.00;99.90;;;;;;3585802;40;20051;-81
2021/07/05 06:39:50;;;;;;;25.80;21.60;;;18.00;99.90;;;;;;3584725;40;20040;-80
2021/07/05 06:42:16;;;;;;;25.83;21.77;;;18.00;99.90;;;;;;3584419;40;20444;-81
2021/07/05 06:44:42;;;;;;;24.80;21.30;;;18.00;99.90;;;;;;3585557;40;20047;-79
2021/07/05 06:47:08;;;;;;;26.60;22.80;;;17.90;99.90;;;;;;3585521;40;20038;-81
2021/07/05 06:49:34;;;;;;;27.60;22.35;;;17.90;99.90;;;;;;3596213;39;20050;-83
2021/07/05 06:52:00;;;;;;;24.42;21.35;;;17.90;99.90;;;;;;3576623;40;20045;-81
2021/07/05 06:54:25;;;;;;;24.48;21.00;;;17.80;99.90;;;;;;3585590;40;20032;-81
2021/07/05 06:56:51;;;;;;;24.50;20.67;;;17.80;99.90;;;;;;3577095;40;20032;-81
2021/07/05 06:59:17;;;;;;;30.00;23.67;;;17.80;99.90;;;;;;3585436;40;20137;-81
2021/07/05 07:01:45;;;;;;;28.27;22.48;;;17.80;99.90;;;;;;3585712;40;20047;-80
2021/07/05 07:04:11;;;;;;;26.05;20.55;;;17.70;99.90;;;;;;3585610;40;20037;-86
2021/07/05 07:06:37;;;;;;;25.02;20.38;;;17.70;99.90;;;;;;3585784;40;20512;-82
2021/07/05 07:09:04;;;;;;;29.70;21.65;;;17.60;99.90;;;;;;3583086;40;20045;-82
2021/07/05 07:11:30;;;;;;;29.45;21.52;;;17.60;99.90;;;;;;3585526;40;20096;-79
2021/07/05 07:13:56;;;;;;;33.72;22.17;;;17.60;99.90;;;;;;3585247;40;20323;-79
2021/07/05 07:16:24;;;;;;;27.40;22.25;;;17.50;99.90;;;;;;3585536;40;20043;-80
2021/07/05 07:21:47;;;;;;;31.55;22.85;;;17.50;99.90;;;;;;3582550;40;20021;-80
2021/07/05 07:24:14;;;;;;;23.15;17.85;;;17.40;99.90;;;;;;3584704;40;20037;-79
2021/07/05 07:26:40;;;;;;;23.20;16.60;;;17.40;99.90;;;;;;3597984;39;20036;-79
2021/07/05 07:29:06;;;;;;;17.90;14.32;;;17.30;99.90;;;;;;3585353;40;20051;-79
2021/07/05 07:31:32;;;;;;;17.52;13.38;;;17.20;99.90;;;;;;3574936;40;20061;-79
2021/07/05 07:33:58;;;;;;;14.68;11.55;;;17.10;99.90;;;;;;3582899;40;20044;-75
2021/07/05 07:36:25;;;;;;;10.73;9.45;;;17.00;99.90;;;;;;3598142;39;20047;-80
2021/07/05 07:38:57;;;;;;;9.82;8.85;;;16.90;99.90;;;;;;3585422;40;20137;-79
2021/07/05 07:41:24;;;;;;;12.68;8.82;;;16.90;99.90;;;;;;3581950;40;20036;-78
2021/07/05 07:43:50;;;;;;;12.10;9.30;;;16.80;99.90;;;;;;3585548;40;20036;-77
2021/07/05 07:46:16;;;;;;;10.77;8.13;;;16.70;99.90;;;;;;3584084;40;20048;-80
2021/07/05 07:48:42;;;;;;;9.85;8.85;;;16.60;99.90;;;;;;3594069;40;20121;-78
2021/07/05 07:51:08;;;;;;;15.90;8.80;;;16.50;99.90;;;;;;3586570;40;20338;-77
2021/07/05 07:53:34;;;;;;;10.13;8.02;;;16.50;99.90;;;;;;3586782;40;20040;-75
2021/07/05 07:56:00;;;;;;;9.23;8.30;;;16.50;99.90;;;;;;3590549;39;20044;-77
2021/07/05 07:58:27;;;;;;;3.10;2.00;;;16.40;99.90;;;;;;3586470;40;20331;-78
2021/07/05 08:00:53;;;;;;;2.17;0.60;;;16.40;99.90;;;;;;3586794;40;20076;-78
2021/07/05 08:03:19;;;;;;;3.28;0.70;;;16.30;99.90;;;;;;3586334;40;20036;-76
2021/07/05 08:05:44;;;;;;;3.13;0.50;;;16.20;99.90;;;;;;3585913;40;20049;-79
2021/07/05 08:08:12;;;;;;;2.50;0.40;;;16.10;99.90;;;;;;3586653;40;20067;-78
2021/07/05 08:10:38;;;;;;;0.75;0.40;;;16.10;99.90;;;;;;3586410;40;20080;-79
2021/07/05 08:13:05;;;;;;;2.05;0.38;;;16.00;99.90;;;;;;3585747;40;20140;-78
2021/07/05 08:15:31;;;;;;;3.15;0.30;;;16.00;99.90;;;;;;3586570;40;20048;-80
2021/07/05 08:17:57;;;;;;;2.30;0.25;;;15.90;99.90;;;;;;3586717;40;20098;-77
2021/07/05 08:20:23;;;;;;;1.80;0.20;;;15.90;99.90;;;;;;3586012;40;20129;-79
2021/07/05 08:22:54;;;;;;;4.85;0.30;;;15.80;99.90;;;;;;3585483;40;20064;-77
2021/07/05 08:25:22;;;;;;;1.30;0.47;;;15.70;99.90;;;;;;3583921;40;20133;-77
2021/07/05 08:27:49;;;;;;;2.55;0.38;;;15.60;99.90;;;;;;3582268;40;20032;-77
2021/07/05 08:30:16;;;;;;;1.25;0.20;;;15.60;99.90;;;;;;3584871;40;20391;-78
2021/07/05 08:32:42;;;;;;;0.90;0.38;;;15.60;99.90;;;;;;3581867;40;21597;-76
2021/07/05 08:35:08;;;;;;;4.57;0.68;;;15.60;99.90;;;;;;3582050;40;20106;-78
2021/07/05 08:37:34;;;;;;;1.83;0.20;;;15.60;99.90;;;;;;3571580;40;20045;-78
2021/07/05 08:40:03;;;;;;;2.08;0.20;;;15.60;99.90;;;;;;3582624;40;20056;-80
2021/07/05 08:42:28;;;;;;;1.85;0.30;;;15.60;99.90;;;;;;3580857;40;20033;-78
2021/07/05 08:44:58;;;;;;;3.47;0.63;;;15.60;99.90;;;;;;3578907;40;20364;-77
2021/07/05 08:47:30;;;;;;;1.67;0.50;;;15.60;99.90;;;;;;3580359;40;20088;-78
2021/07/05 08:49:56;;;;;;;1.13;0.30;;;15.50;99.90;;;;;;3579769;40;20040;-78
2021/07/05 08:52:22;;;;;;;0.45;0.20;;;15.50;99.90;;;;;;3579984;40;20056;-78
2021/07/05 08:54:48;;;;;;;2.58;0.40;;;15.50;99.90;;;;;;3583676;40;20117;-78
2021/07/05 08:59:58;;;;;;;1.25;0.10;;;15.40;99.90;;;;;;3581430;40;20118;-78
2021/07/05 09:02:24;;;;;;;0.32;0.10;;;15.40;99.90;;;;;;3578410;40;20056;-77
2021/07/05 09:04:50;;;;;;;0.95;0.13;;;15.40;99.90;;;;;;3580708;40;20041;-77
2021/07/05 09:07:16;;;;;;;0.57;0.10;;;15.40;99.90;;;;;;3581283;40;20542;-77
2021/07/05 09:10:09;;;;;;;0.60;0.20;;;15.40;99.90;;;;;;3578986;40;20032;-77
2021/07/05 09:12:35;;;;;;;2.88;0.22;;;15.40;99.90;;;;;;3581409;40;20368;-77
2021/07/05 09:15:05;;;;;;;0.40;0.10;;;15.50;99.90;;;;;;3578606;40;20137;-78
2021/07/05 09:17:40;;;;;;;0.60;0.20;;;15.50;99.90;;;;;;3580318;40;20033;-77
2021/07/05 09:20:26;;;;;;;0.50;0.10;;;15.60;99.90;;;;;;3580381;40;20050;-77
2021/07/05 09:23:12;;;;;;;0.50;0.30;;;15.70;99.90;;;;;;3570224;40;20385;-77
2021/07/05 09:25:45;;;;;;;1.40;0.20;;;15.90;99.90;;;;;;3581107;40;20120;-77
2021/07/05 09:28:11;;;;;;;1.05;0.43;;;16.00;99.90;;;;;;3582138;40;20056;-78
2021/07/05 09:30:44;;;;;;;1.13;0.40;;;16.20;99.90;;;;;;3582339;40;20045;-78
2021/07/05 09:33:20;;;;;;;0.82;0.32;;;16.30;99.90;;;;;;3579306;40;20036;-77
2021/07/05 09:35:57;;;;;;;2.55;0.57;;;16.50;99.90;;;;;;3579275;40;20080;-76
2021/07/05 09:38:34;;;;;;;2.85;0.70;;;16.70;99.90;;;;;;3581076;40;20048;-77
2021/07/05 09:41:18;;;;;;;2.85;1.58;;;16.90;99.90;;;;;;3580508;40;20044;-77
2021/07/05 09:43:44;;;;;;;2.35;0.98;;;17.10;99.90;;;;;;3581825;40;20419;-76
2021/07/05 09:46:11;;;;;;;2.45;1.25;;;17.30;99.90;;;;;;3581498;40;20041;-77
2021/07/05 09:48:46;;;;;;;2.20;1.65;;;17.40;99.90;;;;;;3579039;40;20051;-81
2021/07/05 09:51:18;;;;;;;2.15;1.00;;;17.50;99.90;;;;;;3583076;40;20435;-77
2021/07/05 09:53:45;;;;;;;4.00;2.03;;;17.60;99.90;;;;;;3580532;40;20044;-78
2021/07/05 09:56:28;;;;;;;3.97;1.85;;;17.70;99.90;;;;;;3580180;40;20715;-84
2021/07/05 09:59:29;;;;;;;3.80;2.13;;;17.90;99.90;;;;;;3581249;40;20295;-78
2021/07/05 10:01:57;;;;;;;3.35;2.30;;;18.10;99.90;;;;;;3569076;40;20287;-78
2021/07/05 10:04:38;;;;;;;5.97;3.50;;;18.30;99.90;;;;;;3578824;40;20048;-78
2021/07/05 10:07:05;;;;;;;3.45;3.15;;;18.40;99.90;;;;;;3581089;40;20614;-76
2021/07/05 10:09:32;;;;;;;3.97;3.00;;;18.40;99.90;;;;;;3577367;40;20045;-79
2021/07/05 10:12:17;;;;;;;5.55;3.75;;;18.50;99.90;;;;;;3579487;40;20244;-78
2021/07/05 10:14:50;;;;;;;6.05;3.97;;;18.50;99.90;;;;;;3582427;40;20040;-76
2021/07/05 10:17:16;;;;;;;5.13;3.97;;;18.50;99.90;;;;;;3581742;40;20032;-77
2021/07/05 10:19:43;;;;;;;6.20;4.22;;;18.40;99.90;;;;;;3579522;40;20048;-78
2021/07/05 10:22:15;;;;;;;6.57;4.45;;;18.50;99.90;;;;;;3582172;40;20050;-79
2021/07/05 10:24:42;;;;;;;6.88;4.88;;;18.60;99.90;;;;;;3579349;40;20039;-78
2021/07/05 10:27:10;;;;;;;9.20;6.03;;;18.60;99.90;;;;;;3579464;40;20056;-77
2021/07/05 10:29:40;;;;;;;13.25;6.68;;;18.70;99.90;;;;;;3581393;40;20044;-78
2021/07/05 10:32:08;;;;;;;6.90;5.57;;;18.80;99.90;;;;;;3579866;40;20413;-77
2021/07/05 10:34:36;;;;;;;7.68;5.18;;;19.00;99.90;;;;;;3582309;40;20331;-78
2021/07/05 10:37:04;;;;;;;8.57;5.07;;;19.30;99.90;;;;;;3580236;40;20047;-79
2021/07/05 10:39:33;;;;;;;7.88;5.45;;;19.60;99.90;;;;;;3580072;40;20063;-80
2021/07/05 10:41:59;;;;;;;8.98;5.90;;;19.80;99.90;;;;;;3580781;40;20392;-79
2021/07/05 10:44:45;;;;;;;9.25;6.00;;;20.00;99.90;;;;;;3579847;40;20327;-81
2021/07/05 10:47:11;;;;;;;9.77;5.32;;;20.30;97.90;;;;;;3578593;40;20053;-79
2021/07/05 10:49:46;;;;;;;7.82;4.70;;;20.40;99.70;;;;;;3582084;40;20051;-80
2021/07/05 10:52:16;;;;;;;6.38;5.20;;;20.50;99.60;;;;;;3579720;40;20290;-79
2021/07/05 10:54:45;;;;;;;8.50;5.22;;;20.50;99.00;;;;;;3579010;40;20033;-79
2021/07/05 10:57:14;;;;;;;6.97;5.47;;;20.50;98.90;;;;;;3579877;40;20052;-77
2021/07/05 10:59:43;;;;;;;8.95;6.22;;;20.40;98.80;;;;;;3582886;40;20699;-78
2021/07/05 11:02:32;;;;;;;8.27;5.32;;;20.40;99.10;;;;;;3578518;40;20088;-80
2021/07/05 11:04:58;;;;;;;6.80;5.18;;;20.60;96.70;;;;;;3581410;40;20068;-78
2021/07/05 11:07:44;;;;;;;7.18;5.55;;;20.80;99.00;;;;;;3581054;40;20280;-81
2021/07/05 11:10:23;;;;;;;9.77;5.70;;;20.90;97.40;;;;;;3576588;40;20036;-77
2021/07/05 11:13:01;;;;;;;7.53;5.28;;;21.00;97.40;;;;;;3580281;40;20037;-75
2021/07/05 11:15:52;;;;;;;7.25;5.03;;;20.90;97.20;;;;;;3581277;40;20052;-78
2021/07/05 11:18:36;;;;;;;6.97;4.53;;;20.90;95.90;;;;;;3582652;40;20117;-79
2021/07/05 11:21:22;;;;;;;6.47;4.88;;;21.10;94.20;;;;;;3585285;40;20337;-78
2021/07/05 11:24:01;;;;;;;7.45;4.60;;;21.30;95.60;;;;;;3573767;40;20074;-80
2021/07/05 11:26:39;;;;;;;5.45;4.75;;;21.50;96.10;;;;;;3584005;40;20246;-80
2021/07/05 11:29:21;;;;;;;6.03;4.88;;;21.60;97.10;;;;;;3586866;40;20036;-79
2021/07/05 11:31:48;;;;;;;9.25;5.30;;;21.70;96.00;;;;;;3585351;40;20375;-78
2021/07/05 11:34:29;;;;;;;4.88;4.47;;;21.60;96.30;;;;;;3585398;40;20051;-78
2021/07/05 11:37:27;;;;;;;7.25;4.95;;;21.40;93.20;;;;;;3575478;40;20114;-78
2021/07/05 11:39:57;;;;;;;5.85;4.78;;;21.40;93.20;;;;;;3569432;40;20047;-79
2021/07/05 11:42:33;;;;;;;5.60;4.30;;;21.40;96.10;;;;;;3582713;40;20321;-79
2021/07/05 11:44:59;;;;;;;8.82;5.28;;;21.40;94.50;;;;;;3586384;40;20129;-77
2021/07/05 11:47:47;;;;;;;8.02;4.70;;;21.40;95.80;;;;;;3586503;40;20129;-77
2021/07/05 11:50:22;;;;;;;9.13;5.80;;;21.60;93.50;;;;;;3594130;40;20286;-81
2021/07/05 11:52:50;;;;;;;10.52;5.35;;;21.90;95.00;;;;;;3583584;40;20046;-79
2021/07/05 11:55:17;;;;;;;9.13;5.25;;;22.10;95.80;;;;;;3586182;40;20287;-82
2021/07/05 11:57:47;;;;;;;7.05;5.68;;;22.10;95.10;;;;;;3587452;40;20044;-80
2021/07/05 12:00:14;;;;;;;7.45;5.05;;;22.00;93.90;;;;;;3585235;40;20466;-80
2021/07/05 12:02:40;;;;;;;7.32;5.40;;;21.90;94.80;;;;;;3586473;40;20064;-79
2021/07/05 12:05:08;;;;;;;8.18;5.35;;;21.70;94.40;;;;;;3586587;40;20551;-81
2021/07/05 12:07:34;;;;;;;7.03;5.18;;;21.60;94.00;;;;;;3585768;40;20043;-80
2021/07/05 12:10:00;;;;;;;7.57;5.75;;;21.30;94.30;;;;;;3586447;40;20059;-81
2021/07/05 12:12:30;;;;;;;9.18;6.10;;;21.30;94.20;;;;;;3585957;40;20048;-79
2021/07/05 12:14:56;;;;;;;7.38;5.20;;;21.40;95.00;;;;;;3585543;40;20064;-80
2021/07/05 12:17:23;;;;;;;7.40;5.90;;;21.50;95.10;;;;;;3586039;40;20047;-79
2021/07/05 12:19:52;;;;;;;6.00;5.03;;;21.70;94.90;;;;;;3585846;40;20056;-80
2021/07/05 12:22:26;;;;;;;9.75;5.75;;;21.70;94.30;;;;;;3586396;40;20129;-78
2021/07/05 12:24:52;;;;;;;8.20;5.07;;;21.70;93.80;;;;;;3585984;40;20028;-79
2021/07/05 12:27:20;;;;;;;7.70;5.38;;;21.70;94.30;;;;;;3586912;40;20040;-78
2021/07/05 12:29:59;;;;;;;5.95;4.72;;;21.80;94.20;;;;;;3578785;40;20044;-79
2021/07/05 12:32:32;;;;;;;6.75;5.22;;;21.90;93.40;;;;;;3585793;40;20032;-77
2021/07/05 12:35:05;;;;;;;6.53;4.55;;;21.90;93.20;;;;;;3586721;40;20126;-79
2021/07/05 12:37:44;;;;;;;7.47;5.18;;;22.00;93.00;;;;;;3586535;40;20341;-83
2021/07/05 12:40:18;;;;;;;8.95;6.07;;;22.20;92.40;;;;;;3583833;40;20047;-85
2021/07/05 12:42:50;;;;;;;6.35;5.43;;;22.30;88.50;;;;;;3582757;40;20046;-80
2021/07/05 12:45:15;;;;;;;7.63;5.32;;;22.20;92.20;;;;;;3585396;40;20357;-80
2021/07/05 12:47:45;;;;;;;7.28;5.22;;;22.20;93.00;;;;;;3586314;40;20051;-79